Terminal Aerodrome Forecast
Issued by NWS

Home | Current Version | Previous Version | Text Only | Print | Product List | Glossary On
Versions: 1 2 3 4 5 6 7 8 9 10 11 12 13 14
000
FTUS44 KEPZ 230500
TAFLRU
TAF
KLRU 230532Z 2306/2406 32010KT P6SM SCT080 BKN110
      TEMPO 2306/2309 VRB15G25KT 6SM -SHRA BKN080 OVC120
     FM231200 05005KT P6SM SCT150 SCT250
     FM231800 11010KT P6SM FEW080 SCT150=

USA.gov is the U.S. government's official web portal to all federal, state and local government web resources and services.